sensor_id;sensor_type;location;lat;lon;timestamp;temperature;humidity
14411;DHT22;7290;50.854;4.354;2022-12-05T00:00:31;4.40;99.90
14411;DHT22;7290;50.854;4.354;2022-12-05T00:02:57;4.30;99.90
14411;DHT22;7290;50.854;4.354;2022-12-05T00:05:24;4.20;99.90
14411;DHT22;7290;50.854;4.354;2022-12-05T00:07:50;4.10;99.90
14411;DHT22;7290;50.854;4.354;2022-12-05T00:10:16;4.00;99.90
14411;DHT22;7290;50.854;4.354;2022-12-05T00:12:43;4.10;99.90
14411;DHT22;7290;50.854;4.354;2022-12-05T00:15:09;4.10;99.90
14411;DHT22;7290;50.854;4.354;2022-12-05T00:17:38;4.10;99.90
14411;DHT22;7290;50.854;4.354;2022-12-05T00:20:06;4.20;99.90
14411;DHT22;7290;50.854;4.354;2022-12-05T00:22:34;4.20;99.90
14411;DHT22;7290;50.854;4.354;2022-12-05T00:25:01;4.10;99.90
14411;DHT22;7290;50.854;4.354;2022-12-05T00:27:27;4.20;99.90
14411;DHT22;7290;50.854;4.354;2022-12-05T00:29:53;4.30;99.90
14411;DHT22;7290;50.854;4.354;2022-12-05T00:32:19;4.30;99.90
14411;DHT22;7290;50.854;4.354;2022-12-05T00:34:45;4.30;99.90
14411;DHT22;7290;50.854;4.354;2022-12-05T00:37:11;4.40;99.90
14411;DHT22;7290;50.854;4.354;2022-12-05T00:39:38;4.40;99.90
14411;DHT22;7290;50.854;4.354;2022-12-05T00:42:04;4.40;99.90
14411;DHT22;7290;50.854;4.354;2022-12-05T00:44:30;4.50;99.90
14411;DHT22;7290;50.854;4.354;2022-12-05T00:46:56;4.50;99.90
14411;DHT22;7290;50.854;4.354;2022-12-05T00:49:22;4.50;99.90
14411;DHT22;7290;50.854;4.354;2022-12-05T00:51:49;4.50;99.90
14411;DHT22;7290;50.854;4.354;2022-12-05T00:54:15;4.50;99.90
14411;DHT22;7290;50.854;4.354;2022-12-05T00:56:42;4.40;99.90
14411;DHT22;7290;50.854;4.354;2022-12-05T00:59:13;4.50;99.90
14411;DHT22;7290;50.854;4.354;2022-12-05T01:01:41;4.30;99.90
14411;DHT22;7290;50.854;4.354;2022-12-05T01:04:10;4.30;99.90
14411;DHT22;7290;50.854;4.354;2022-12-05T01:06:37;4.20;99.90
14411;DHT22;7290;50.854;4.354;2022-12-05T01:09:04;4.30;99.90
14411;DHT22;7290;50.854;4.354;2022-12-05T01:11:31;4.30;99.90
14411;DHT22;7290;50.854;4.354;2022-12-05T01:13:57;4.40;99.90
14411;DHT22;7290;50.854;4.354;2022-12-05T01:16:25;4.40;99.90
14411;DHT22;7290;50.854;4.354;2022-12-05T01:18:52;4.40;99.90
14411;DHT22;7290;50.854;4.354;2022-12-05T01:21:19;4.50;99.90
14411;DHT22;7290;50.854;4.354;2022-12-05T01:23:45;4.40;99.90
14411;DHT22;7290;50.854;4.354;2022-12-05T01:26:14;4.40;99.90
14411;DHT22;7290;50.854;4.354;2022-12-05T01:28:41;4.50;99.90
14411;DHT22;7290;50.854;4.354;2022-12-05T01:31:19;4.40;99.90
14411;DHT22;7290;50.854;4.354;2022-12-05T01:33:47;4.30;99.90
14411;DHT22;7290;50.854;4.354;2022-12-05T01:36:13;4.30;99.90
14411;DHT22;7290;50.854;4.354;2022-12-05T01:38:40;4.30;99.90
14411;DHT22;7290;50.854;4.354;2022-12-05T01:41:10;4.40;99.90
14411;DHT22;7290;50.854;4.354;2022-12-05T01:43:55;4.50;99.90
14411;DHT22;7290;50.854;4.354;2022-12-05T01:46:22;4.20;99.90
14411;DHT22;7290;50.854;4.354;2022-12-05T01:48:49;4.10;99.90
14411;DHT22;7290;50.854;4.354;2022-12-05T01:51:16;4.30;99.90
14411;DHT22;7290;50.854;4.354;2022-12-05T01:53:42;4.30;99.90
14411;DHT22;7290;50.854;4.354;2022-12-05T01:56:08;4.40;99.90
14411;DHT22;7290;50.854;4.354;2022-12-05T01:58:37;4.40;99.90
14411;DHT22;7290;50.854;4.354;2022-12-05T02:01:04;4.40;99.90
14411;DHT22;7290;50.854;4.354;2022-12-05T02:03:30;4.50;99.90
14411;DHT22;7290;50.854;4.354;2022-12-05T02:05:57;4.50;99.90
14411;DHT22;7290;50.854;4.354;2022-12-05T02:08:26;4.40;99.90
14411;DHT22;7290;50.854;4.354;2022-12-05T02:10:54;4.50;99.90
14411;DHT22;7290;50.854;4.354;2022-12-05T02:13:30;4.50;99.90
14411;DHT22;7290;50.854;4.354;2022-12-05T02:16:02;4.30;99.90
14411;DHT22;7290;50.854;4.354;2022-12-05T02:18:41;4.20;99.90
14411;DHT22;7290;50.854;4.354;2022-12-05T02:24:26;4.50;99.90
14411;DHT22;7290;50.854;4.354;2022-12-05T02:27:11;4.40;99.90
14411;DHT22;7290;50.854;4.354;2022-12-05T02:29:59;4.40;99.90
14411;DHT22;7290;50.854;4.354;2022-12-05T02:32:36;4.30;99.90
14411;DHT22;7290;50.854;4.354;2022-12-05T02:35:11;4.50;99.90
14411;DHT22;7290;50.854;4.354;2022-12-05T02:37:43;4.40;99.90
14411;DHT22;7290;50.854;4.354;2022-12-05T02:40:22;4.60;99.90
14411;DHT22;7290;50.854;4.354;2022-12-05T02:42:54;4.50;99.90
14411;DHT22;7290;50.854;4.354;2022-12-05T02:45:23;4.40;99.90
14411;DHT22;7290;50.854;4.354;2022-12-05T02:47:54;4.60;99.90
14411;DHT22;7290;50.854;4.354;2022-12-05T02:50:22;4.50;99.90
14411;DHT22;7290;50.854;4.354;2022-12-05T02:52:50;4.60;99.90
14411;DHT22;7290;50.854;4.354;2022-12-05T02:55:19;4.40;99.90
14411;DHT22;7290;50.854;4.354;2022-12-05T02:57:49;4.50;99.90
14411;DHT22;7290;50.854;4.354;2022-12-05T03:00:17;4.30;99.90
14411;DHT22;7290;50.854;4.354;2022-12-05T03:02:44;4.50;99.90
14411;DHT22;7290;50.854;4.354;2022-12-05T03:05:18;4.50;99.90
14411;DHT22;7290;50.854;4.354;2022-12-05T03:07:48;4.40;99.90
14411;DHT22;7290;50.854;4.354;2022-12-05T03:10:19;4.50;99.90
14411;DHT22;7290;50.854;4.354;2022-12-05T03:12:49;4.50;99.90
14411;DHT22;7290;50.854;4.354;2022-12-05T03:15:19;4.50;99.90
14411;DHT22;7290;50.854;4.354;2022-12-05T03:17:52;4.50;99.90
14411;DHT22;7290;50.854;4.354;2022-12-05T03:20:24;4.60;99.90
14411;DHT22;7290;50.854;4.354;2022-12-05T03:22:55;4.50;99.90
14411;DHT22;7290;50.854;4.354;2022-12-05T03:25:29;4.50;99.90
14411;DHT22;7290;50.854;4.354;2022-12-05T03:28:03;4.60;99.90
14411;DHT22;7290;50.854;4.354;2022-12-05T03:30:34;4.50;99.90
14411;DHT22;7290;50.854;4.354;2022-12-05T03:33:04;4.50;99.90
14411;DHT22;7290;50.854;4.354;2022-12-05T03:35:36;4.50;99.90
14411;DHT22;7290;50.854;4.354;2022-12-05T03:38:07;4.60;99.90
14411;DHT22;7290;50.854;4.354;2022-12-05T03:40:40;4.50;99.90
14411;DHT22;7290;50.854;4.354;2022-12-05T03:43:10;4.60;99.90
14411;DHT22;7290;50.854;4.354;2022-12-05T03:45:43;4.70;99.90
14411;DHT22;7290;50.854;4.354;2022-12-05T03:48:16;4.70;99.90
14411;DHT22;7290;50.854;4.354;2022-12-05T03:50:45;4.70;99.90
14411;DHT22;7290;50.854;4.354;2022-12-05T03:53:15;4.70;99.90
14411;DHT22;7290;50.854;4.354;2022-12-05T03:55:44;4.70;99.90
14411;DHT22;7290;50.854;4.354;2022-12-05T03:58:15;4.70;99.90
14411;DHT22;7290;50.854;4.354;2022-12-05T04:00:45;4.80;99.90
14411;DHT22;7290;50.854;4.354;2022-12-05T04:03:17;4.90;99.90
14411;DHT22;7290;50.854;4.354;2022-12-05T04:05:47;4.70;99.90
14411;DHT22;7290;50.854;4.354;2022-12-05T04:08:18;4.80;99.90
14411;DHT22;7290;50.854;4.354;2022-12-05T04:10:48;4.90;99.90
14411;DHT22;7290;50.854;4.354;2022-12-05T04:13:18;4.70;99.90
14411;DHT22;7290;50.854;4.354;2022-12-05T04:15:50;4.70;99.90
14411;DHT22;7290;50.854;4.354;2022-12-05T04:18:40;4.80;99.90
14411;DHT22;7290;50.854;4.354;2022-12-05T04:21:07;4.80;99.90
14411;DHT22;7290;50.854;4.354;2022-12-05T04:23:52;4.80;99.90
14411;DHT22;7290;50.854;4.354;2022-12-05T04:26:33;4.70;99.90
14411;DHT22;7290;50.854;4.354;2022-12-05T04:29:04;4.80;99.90
14411;DHT22;7290;50.854;4.354;2022-12-05T04:31:36;4.80;99.90
14411;DHT22;7290;50.854;4.354;2022-12-05T04:34:07;4.80;99.90
14411;DHT22;7290;50.854;4.354;2022-12-05T04:36:37;4.80;99.90
14411;DHT22;7290;50.854;4.354;2022-12-05T04:39:07;4.90;99.90
14411;DHT22;7290;50.854;4.354;2022-12-05T04:41:37;4.90;99.90
14411;DHT22;7290;50.854;4.354;2022-12-05T04:44:07;4.90;99.90
14411;DHT22;7290;50.854;4.354;2022-12-05T04:46:34;4.90;99.90
14411;DHT22;7290;50.854;4.354;2022-12-05T04:49:02;4.80;99.90
14411;DHT22;7290;50.854;4.354;2022-12-05T04:51:32;4.80;99.90
14411;DHT22;7290;50.854;4.354;2022-12-05T04:54:03;4.80;99.90
14411;DHT22;7290;50.854;4.354;2022-12-05T04:56:32;4.70;99.90
14411;DHT22;7290;50.854;4.354;2022-12-05T04:58:59;4.80;99.90
14411;DHT22;7290;50.854;4.354;2022-12-05T05:01:30;4.90;99.90
14411;DHT22;7290;50.854;4.354;2022-12-05T05:04:02;4.90;99.90
14411;DHT22;7290;50.854;4.354;2022-12-05T05:06:32;4.70;99.90
14411;DHT22;7290;50.854;4.354;2022-12-05T05:09:01;4.80;99.90
14411;DHT22;7290;50.854;4.354;2022-12-05T05:11:29;4.90;99.90
14411;DHT22;7290;50.854;4.354;2022-12-05T05:13:56;4.80;99.90
14411;DHT22;7290;50.854;4.354;2022-12-05T05:16:24;4.80;99.90
14411;DHT22;7290;50.854;4.354;2022-12-05T05:18:51;4.80;99.90
14411;DHT22;7290;50.854;4.354;2022-12-05T05:21:19;4.80;99.90
14411;DHT22;7290;50.854;4.354;2022-12-05T05:23:46;4.90;99.90
14411;DHT22;7290;50.854;4.354;2022-12-05T05:26:13;4.80;99.90
14411;DHT22;7290;50.854;4.354;2022-12-05T05:28:39;4.90;99.90
14411;DHT22;7290;50.854;4.354;2022-12-05T05:31:05;4.90;99.90
14411;DHT22;7290;50.854;4.354;2022-12-05T05:33:32;4.70;99.90
14411;DHT22;7290;50.854;4.354;2022-12-05T05:36:02;4.80;99.90
14411;DHT22;7290;50.854;4.354;2022-12-05T05:38:28;4.60;99.90
14411;DHT22;7290;50.854;4.354;2022-12-05T05:40:54;4.70;99.90
14411;DHT22;7290;50.854;4.354;2022-12-05T05:43:20;4.70;99.90
14411;DHT22;7290;50.854;4.354;2022-12-05T05:45:46;4.60;99.90
14411;DHT22;7290;50.854;4.354;2022-12-05T05:48:12;4.70;99.90
14411;DHT22;7290;50.854;4.354;2022-12-05T05:50:38;4.90;99.90
14411;DHT22;7290;50.854;4.354;2022-12-05T05:53:05;4.90;99.90
14411;DHT22;7290;50.854;4.354;2022-12-05T05:55:31;5.00;99.90
14411;DHT22;7290;50.854;4.354;2022-12-05T05:57:57;5.10;99.90
14411;DHT22;7290;50.854;4.354;2022-12-05T06:00:23;5.10;99.90
14411;DHT22;7290;50.854;4.354;2022-12-05T06:02:50;5.10;99.90
14411;DHT22;7290;50.854;4.354;2022-12-05T06:05:16;5.20;99.90
14411;DHT22;7290;50.854;4.354;2022-12-05T06:07:42;5.20;99.90
14411;DHT22;7290;50.854;4.354;2022-12-05T06:10:09;5.20;99.90
14411;DHT22;7290;50.854;4.354;2022-12-05T06:12:35;5.20;99.90
14411;DHT22;7290;50.854;4.354;2022-12-05T06:15:02;5.20;99.90
14411;DHT22;7290;50.854;4.354;2022-12-05T06:17:29;5.10;99.90
14411;DHT22;7290;50.854;4.354;2022-12-05T06:19:55;4.80;99.90
14411;DHT22;7290;50.854;4.354;2022-12-05T06:22:21;4.90;99.90
14411;DHT22;7290;50.854;4.354;2022-12-05T06:24:47;4.90;99.90
14411;DHT22;7290;50.854;4.354;2022-12-05T06:27:14;4.90;99.90
14411;DHT22;7290;50.854;4.354;2022-12-05T06:29:40;5.00;99.90
14411;DHT22;7290;50.854;4.354;2022-12-05T06:32:07;4.80;99.90
14411;DHT22;7290;50.854;4.354;2022-12-05T06:34:33;4.80;99.90
14411;DHT22;7290;50.854;4.354;2022-12-05T06:37:00;4.60;99.90
14411;DHT22;7290;50.854;4.354;2022-12-05T06:39:26;4.70;99.90
14411;DHT22;7290;50.854;4.354;2022-12-05T06:41:52;4.80;99.90
14411;DHT22;7290;50.854;4.354;2022-12-05T06:44:18;4.90;99.90
14411;DHT22;7290;50.854;4.354;2022-12-05T06:46:46;5.00;99.90
14411;DHT22;7290;50.854;4.354;2022-12-05T06:49:12;4.70;99.90
14411;DHT22;7290;50.854;4.354;2022-12-05T06:51:38;4.60;99.90
14411;DHT22;7290;50.854;4.354;2022-12-05T06:54:05;4.70;99.90
14411;DHT22;7290;50.854;4.354;2022-12-05T06:56:31;5.00;99.90
14411;DHT22;7290;50.854;4.354;2022-12-05T06:58:57;5.10;99.90
14411;DHT22;7290;50.854;4.354;2022-12-05T07:01:24;5.20;99.90
14411;DHT22;7290;50.854;4.354;2022-12-05T07:04:10;5.20;99.90
14411;DHT22;7290;50.854;4.354;2022-12-05T07:06:37;5.20;99.90
14411;DHT22;7290;50.854;4.354;2022-12-05T07:09:04;5.10;99.90
14411;DHT22;7290;50.854;4.354;2022-12-05T07:11:30;5.20;99.90
14411;DHT22;7290;50.854;4.354;2022-12-05T07:13:57;5.30;99.90
14411;DHT22;7290;50.854;4.354;2022-12-05T07:16:23;5.30;99.90
14411;DHT22;7290;50.854;4.354;2022-12-05T07:18:49;5.20;99.90
14411;DHT22;7290;50.854;4.354;2022-12-05T07:21:16;5.20;99.90
14411;DHT22;7290;50.854;4.354;2022-12-05T07:23:44;4.80;99.90
14411;DHT22;7290;50.854;4.354;2022-12-05T07:26:12;4.80;99.90
14411;DHT22;7290;50.854;4.354;2022-12-05T07:28:39;5.00;99.90
14411;DHT22;7290;50.854;4.354;2022-12-05T07:31:06;5.20;99.90
14411;DHT22;7290;50.854;4.354;2022-12-05T07:33:33;5.20;99.90
14411;DHT22;7290;50.854;4.354;2022-12-05T07:36:00;5.30;99.90
14411;DHT22;7290;50.854;4.354;2022-12-05T07:38:26;5.20;99.90
14411;DHT22;7290;50.854;4.354;2022-12-05T07:40:53;5.20;99.90
14411;DHT22;7290;50.854;4.354;2022-12-05T07:43:19;5.20;99.90
14411;DHT22;7290;50.854;4.354;2022-12-05T07:45:45;5.20;99.90
14411;DHT22;7290;50.854;4.354;2022-12-05T07:48:12;5.10;99.90
14411;DHT22;7290;50.854;4.354;2022-12-05T07:50:38;5.20;99.90
14411;DHT22;7290;50.854;4.354;2022-12-05T07:53:04;5.20;99.90
14411;DHT22;7290;50.854;4.354;2022-12-05T07:55:30;5.10;99.90
14411;DHT22;7290;50.854;4.354;2022-12-05T07:57:57;5.20;99.90
14411;DHT22;7290;50.854;4.354;2022-12-05T08:00:23;5.10;99.90
14411;DHT22;7290;50.854;4.354;2022-12-05T08:02:50;5.00;99.90
14411;DHT22;7290;50.854;4.354;2022-12-05T08:05:16;5.10;99.90
14411;DHT22;7290;50.854;4.354;2022-12-05T08:07:42;5.10;99.90
14411;DHT22;7290;50.854;4.354;2022-12-05T08:10:08;5.00;99.90
14411;DHT22;7290;50.854;4.354;2022-12-05T08:12:34;5.10;99.90
14411;DHT22;7290;50.854;4.354;2022-12-05T08:15:03;5.10;99.90
14411;DHT22;7290;50.854;4.354;2022-12-05T08:17:30;5.10;99.90
14411;DHT22;7290;50.854;4.354;2022-12-05T08:19:57;5.20;99.90
14411;DHT22;7290;50.854;4.354;2022-12-05T08:22:24;5.30;99.90
14411;DHT22;7290;50.854;4.354;2022-12-05T08:24:50;5.40;99.90
14411;DHT22;7290;50.854;4.354;2022-12-05T08:27:16;5.50;99.90
14411;DHT22;7290;50.854;4.354;2022-12-05T08:29:42;5.70;99.90
14411;DHT22;7290;50.854;4.354;2022-12-05T08:32:09;5.60;99.90
14411;DHT22;7290;50.854;4.354;2022-12-05T08:34:36;5.70;99.90
14411;DHT22;7290;50.854;4.354;2022-12-05T08:37:02;5.60;99.90
14411;DHT22;7290;50.854;4.354;2022-12-05T08:39:28;5.50;99.90
14411;DHT22;7290;50.854;4.354;2022-12-05T08:41:54;5.50;99.90
14411;DHT22;7290;50.854;4.354;2022-12-05T08:44:20;5.40;99.90
14411;DHT22;7290;50.854;4.354;2022-12-05T08:46:48;5.50;99.90
14411;DHT22;7290;50.854;4.354;2022-12-05T08:49:16;5.60;99.90
14411;DHT22;7290;50.854;4.354;2022-12-05T08:51:42;5.60;99.90
14411;DHT22;7290;50.854;4.354;2022-12-05T08:54:08;5.70;99.90
14411;DHT22;7290;50.854;4.354;2022-12-05T08:56:34;5.70;99.90
14411;DHT22;7290;50.854;4.354;2022-12-05T08:59:01;5.60;99.90
14411;DHT22;7290;50.854;4.354;2022-12-05T09:01:27;5.60;99.90
14411;DHT22;7290;50.854;4.354;2022-12-05T09:03:56;5.60;99.90
14411;DHT22;7290;50.854;4.354;2022-12-05T09:06:24;5.60;99.90
14411;DHT22;7290;50.854;4.354;2022-12-05T09:08:52;5.50;99.90
14411;DHT22;7290;50.854;4.354;2022-12-05T09:11:20;5.40;99.90
14411;DHT22;7290;50.854;4.354;2022-12-05T09:13:49;5.40;99.90
14411;DHT22;7290;50.854;4.354;2022-12-05T09:16:17;5.50;99.90
14411;DHT22;7290;50.854;4.354;2022-12-05T09:18:44;5.50;99.90
14411;DHT22;7290;50.854;4.354;2022-12-05T09:21:11;5.50;99.90
14411;DHT22;7290;50.854;4.354;2022-12-05T09:23:39;5.30;99.90
14411;DHT22;7290;50.854;4.354;2022-12-05T09:26:06;5.40;99.90
14411;DHT22;7290;50.854;4.354;2022-12-05T09:28:33;5.30;99.90
14411;DHT22;7290;50.854;4.354;2022-12-05T09:31:01;5.40;99.90
14411;DHT22;7290;50.854;4.354;2022-12-05T09:33:28;5.60;99.90
14411;DHT22;7290;50.854;4.354;2022-12-05T09:35:55;5.60;99.90
14411;DHT22;7290;50.854;4.354;2022-12-05T09:38:21;5.50;99.90
14411;DHT22;7290;50.854;4.354;2022-12-05T09:40:53;5.40;99.90
14411;DHT22;7290;50.854;4.354;2022-12-05T09:43:31;5.40;99.90
14411;DHT22;7290;50.854;4.354;2022-12-05T09:46:06;5.40;99.90
14411;DHT22;7290;50.854;4.354;2022-12-05T09:48:37;5.50;99.90
14411;DHT22;7290;50.854;4.354;2022-12-05T09:51:08;5.60;99.90
14411;DHT22;7290;50.854;4.354;2022-12-05T09:53:37;5.60;99.90
14411;DHT22;7290;50.854;4.354;2022-12-05T09:56:12;5.60;99.90
14411;DHT22;7290;50.854;4.354;2022-12-05T09:58:45;5.50;99.90
14411;DHT22;7290;50.854;4.354;2022-12-05T10:01:37;5.60;99.90
14411;DHT22;7290;50.854;4.354;2022-12-05T10:04:38;5.60;99.90
14411;DHT22;7290;50.854;4.354;2022-12-05T10:07:13;5.50;99.90
14411;DHT22;7290;50.854;4.354;2022-12-05T10:09:51;5.30;99.90
14411;DHT22;7290;50.854;4.354;2022-12-05T10:12:41;5.30;99.90
14411;DHT22;7290;50.854;4.354;2022-12-05T10:15:13;5.40;99.90
14411;DHT22;7290;50.854;4.354;2022-12-05T10:17:42;5.40;99.90
14411;DHT22;7290;50.854;4.354;2022-12-05T10:20:19;5.50;99.90
14411;DHT22;7290;50.854;4.354;2022-12-05T10:22:48;5.50;99.90
14411;DHT22;7290;50.854;4.354;2022-12-05T10:25:18;5.50;99.90
14411;DHT22;7290;50.854;4.354;2022-12-05T10:27:48;5.50;99.90
14411;DHT22;7290;50.854;4.354;2022-12-05T10:30:17;5.60;99.90
14411;DHT22;7290;50.854;4.354;2022-12-05T10:32:50;5.50;99.90
14411;DHT22;7290;50.854;4.354;2022-12-05T10:35:20;5.60;99.90
14411;DHT22;7290;50.854;4.354;2022-12-05T10:37:49;5.60;99.90
14411;DHT22;7290;50.854;4.354;2022-12-05T10:40:17;5.60;99.90
14411;DHT22;7290;50.854;4.354;2022-12-05T10:42:43;5.60;99.90
14411;DHT22;7290;50.854;4.354;2022-12-05T10:45:16;5.60;99.90
14411;DHT22;7290;50.854;4.354;2022-12-05T10:47:43;5.40;99.90
14411;DHT22;7290;50.854;4.354;2022-12-05T10:50:22;5.40;99.90
14411;DHT22;7290;50.854;4.354;2022-12-05T10:52:51;5.50;99.90
14411;DHT22;7290;50.854;4.354;2022-12-05T10:55:18;5.60;99.90
14411;DHT22;7290;50.854;4.354;2022-12-05T10:57:49;5.70;99.90
14411;DHT22;7290;50.854;4.354;2022-12-05T11:00:20;5.70;99.90
14411;DHT22;7290;50.854;4.354;2022-12-05T11:02:47;5.70;99.90
14411;DHT22;7290;50.854;4.354;2022-12-05T11:05:14;5.80;99.90
14411;DHT22;7290;50.854;4.354;2022-12-05T11:07:45;5.70;99.90
14411;DHT22;7290;50.854;4.354;2022-12-05T11:10:19;5.70;99.90
14411;DHT22;7290;50.854;4.354;2022-12-05T11:12:46;5.50;99.90
14411;DHT22;7290;50.854;4.354;2022-12-05T11:15:21;5.60;99.90
14411;DHT22;7290;50.854;4.354;2022-12-05T11:17:50;5.50;99.90
14411;DHT22;7290;50.854;4.354;2022-12-05T11:20:37;5.50;99.90
14411;DHT22;7290;50.854;4.354;2022-12-05T11:23:21;5.50;99.90
14411;DHT22;7290;50.854;4.354;2022-12-05T11:25:48;5.40;99.90
14411;DHT22;7290;50.854;4.354;2022-12-05T11:28:29;5.50;99.90
14411;DHT22;7290;50.854;4.354;2022-12-05T11:30:58;5.60;99.90
14411;DHT22;7290;50.854;4.354;2022-12-05T11:33:25;5.90;99.90
14411;DHT22;7290;50.854;4.354;2022-12-05T11:35:53;6.10;99.90
14411;DHT22;7290;50.854;4.354;2022-12-05T11:38:21;5.80;99.90
14411;DHT22;7290;50.854;4.354;2022-12-05T11:40:53;6.00;99.90
14411;DHT22;7290;50.854;4.354;2022-12-05T11:43:53;6.10;99.90
14411;DHT22;7290;50.854;4.354;2022-12-05T11:46:29;5.90;99.90
14411;DHT22;7290;50.854;4.354;2022-12-05T11:49:07;5.90;99.90
14411;DHT22;7290;50.854;4.354;2022-12-05T11:51:43;5.80;99.90
14411;DHT22;7290;50.854;4.354;2022-12-05T11:57:14;5.90;99.90
14411;DHT22;7290;50.854;4.354;2022-12-05T12:00:06;6.10;99.90
14411;DHT22;7290;50.854;4.354;2022-12-05T12:02:52;6.10;99.90
14411;DHT22;7290;50.854;4.354;2022-12-05T12:05:27;6.00;99.90
14411;DHT22;7290;50.854;4.354;2022-12-05T12:08:02;6.00;99.90
14411;DHT22;7290;50.854;4.354;2022-12-05T12:10:35;5.90;99.90
14411;DHT22;7290;50.854;4.354;2022-12-05T12:13:20;6.00;99.90
14411;DHT22;7290;50.854;4.354;2022-12-05T12:15:58;6.20;99.90
14411;DHT22;7290;50.854;4.354;2022-12-05T12:18:50;5.90;99.90
14411;DHT22;7290;50.854;4.354;2022-12-05T12:21:18;5.90;99.90
14411;DHT22;7290;50.854;4.354;2022-12-05T12:23:57;6.00;99.90
14411;DHT22;7290;50.854;4.354;2022-12-05T12:26:37;6.00;99.90
14411;DHT22;7290;50.854;4.354;2022-12-05T12:29:12;5.90;99.90
14411;DHT22;7290;50.854;4.354;2022-12-05T12:31:49;5.90;99.90
14411;DHT22;7290;50.854;4.354;2022-12-05T12:34:33;5.90;99.90
14411;DHT22;7290;50.854;4.354;2022-12-05T12:37:06;6.10;99.90
14411;DHT22;7290;50.854;4.354;2022-12-05T12:39:45;6.30;99.90
14411;DHT22;7290;50.854;4.354;2022-12-05T12:42:20;6.30;99.90
14411;DHT22;7290;50.854;4.354;2022-12-05T12:48:23;6.10;99.90
14411;DHT22;7290;50.854;4.354;2022-12-05T12:50:54;6.00;99.90
14411;DHT22;7290;50.854;4.354;2022-12-05T12:56:32;6.10;99.90
14411;DHT22;7290;50.854;4.354;2022-12-05T12:59:13;6.10;99.90
14411;DHT22;7290;50.854;4.354;2022-12-05T13:01:45;5.90;99.90
14411;DHT22;7290;50.854;4.354;2022-12-05T13:04:16;5.90;99.90
14411;DHT22;7290;50.854;4.354;2022-12-05T13:06:46;5.80;99.90
14411;DHT22;7290;50.854;4.354;2022-12-05T13:09:17;5.80;99.90
14411;DHT22;7290;50.854;4.354;2022-12-05T13:11:45;6.00;99.90
14411;DHT22;7290;50.854;4.354;2022-12-05T13:14:14;6.10;99.90
14411;DHT22;7290;50.854;4.354;2022-12-05T13:16:42;6.30;99.90
14411;DHT22;7290;50.854;4.354;2022-12-05T13:19:23;6.40;99.90
14411;DHT22;7290;50.854;4.354;2022-12-05T13:21:51;6.50;99.90
14411;DHT22;7290;50.854;4.354;2022-12-05T13:24:20;6.30;99.90
14411;DHT22;7290;50.854;4.354;2022-12-05T13:26:48;6.40;99.90
14411;DHT22;7290;50.854;4.354;2022-12-05T13:29:19;6.40;99.90
14411;DHT22;7290;50.854;4.354;2022-12-05T13:31:46;6.60;99.90
14411;DHT22;7290;50.854;4.354;2022-12-05T13:34:41;6.30;99.90
14411;DHT22;7290;50.854;4.354;2022-12-05T13:37:18;6.30;99.90
14411;DHT22;7290;50.854;4.354;2022-12-05T13:40:03;6.50;99.90
14411;DHT22;7290;50.854;4.354;2022-12-05T13:42:58;6.70;99.90
14411;DHT22;7290;50.854;4.354;2022-12-05T13:45:25;6.60;99.90
14411;DHT22;7290;50.854;4.354;2022-12-05T13:47:57;6.50;99.90
14411;DHT22;7290;50.854;4.354;2022-12-05T13:50:32;6.50;99.90
14411;DHT22;7290;50.854;4.354;2022-12-05T13:53:02;6.40;99.90
14411;DHT22;7290;50.854;4.354;2022-12-05T13:55:33;6.20;99.90
14411;DHT22;7290;50.854;4.354;2022-12-05T13:58:00;5.90;99.90
14411;DHT22;7290;50.854;4.354;2022-12-05T14:00:29;6.10;99.90
14411;DHT22;7290;50.854;4.354;2022-12-05T14:03:05;6.20;99.90
14411;DHT22;7290;50.854;4.354;2022-12-05T14:05:45;6.20;99.90
14411;DHT22;7290;50.854;4.354;2022-12-05T14:11:20;6.40;99.90
14411;DHT22;7290;50.854;4.354;2022-12-05T14:13:47;6.40;99.90
14411;DHT22;7290;50.854;4.354;2022-12-05T14:16:47;6.40;99.90
14411;DHT22;7290;50.854;4.354;2022-12-05T14:19:29;6.30;99.90
14411;DHT22;7290;50.854;4.354;2022-12-05T14:22:06;6.30;99.90
14411;DHT22;7290;50.854;4.354;2022-12-05T14:24:39;6.30;99.90
14411;DHT22;7290;50.854;4.354;2022-12-05T14:27:13;6.30;99.90
14411;DHT22;7290;50.854;4.354;2022-12-05T14:29:55;6.30;99.90
14411;DHT22;7290;50.854;4.354;2022-12-05T14:32:27;6.10;99.90
14411;DHT22;7290;50.854;4.354;2022-12-05T14:34:56;6.20;99.90
14411;DHT22;7290;50.854;4.354;2022-12-05T14:37:28;6.20;99.90
14411;DHT22;7290;50.854;4.354;2022-12-05T14:39:57;6.30;99.90
14411;DHT22;7290;50.854;4.354;2022-12-05T14:42:31;6.30;99.90
14411;DHT22;7290;50.854;4.354;2022-12-05T14:45:01;6.40;99.90
14411;DHT22;7290;50.854;4.354;2022-12-05T14:47:29;6.60;99.90
14411;DHT22;7290;50.854;4.354;2022-12-05T14:49:59;6.70;99.90
14411;DHT22;7290;50.854;4.354;2022-12-05T14:52:28;6.50;99.90
14411;DHT22;7290;50.854;4.354;2022-12-05T14:55:00;6.50;99.90
14411;DHT22;7290;50.854;4.354;2022-12-05T14:57:28;6.50;99.90
14411;DHT22;7290;50.854;4.354;2022-12-05T14:59:57;6.50;99.90
14411;DHT22;7290;50.854;4.354;2022-12-05T15:02:26;6.50;99.90
14411;DHT22;7290;50.854;4.354;2022-12-05T15:04:57;6.60;99.90
14411;DHT22;7290;50.854;4.354;2022-12-05T15:07:30;6.60;99.90
14411;DHT22;7290;50.854;4.354;2022-12-05T15:09:58;6.50;99.90
14411;DHT22;7290;50.854;4.354;2022-12-05T15:12:28;6.60;99.90
14411;DHT22;7290;50.854;4.354;2022-12-05T15:15:04;6.50;99.90
14411;DHT22;7290;50.854;4.354;2022-12-05T15:17:36;6.60;99.90
14411;DHT22;7290;50.854;4.354;2022-12-05T15:20:07;6.50;99.90
14411;DHT22;7290;50.854;4.354;2022-12-05T15:22:36;6.50;99.90
14411;DHT22;7290;50.854;4.354;2022-12-05T15:25:26;6.30;99.90
14411;DHT22;7290;50.854;4.354;2022-12-05T15:27:55;6.20;99.90
14411;DHT22;7290;50.854;4.354;2022-12-05T15:30:21;6.20;99.90
14411;DHT22;7290;50.854;4.354;2022-12-05T15:32:49;6.20;99.90
14411;DHT22;7290;50.854;4.354;2022-12-05T15:35:16;6.20;99.90
14411;DHT22;7290;50.854;4.354;2022-12-05T15:37:48;6.30;99.90
14411;DHT22;7290;50.854;4.354;2022-12-05T15:40:17;6.30;99.90
14411;DHT22;7290;50.854;4.354;2022-12-05T15:42:47;6.40;99.90
14411;DHT22;7290;50.854;4.354;2022-12-05T15:45:17;6.40;99.90
14411;DHT22;7290;50.854;4.354;2022-12-05T15:47:47;6.40;99.90
14411;DHT22;7290;50.854;4.354;2022-12-05T15:50:13;6.30;99.90
14411;DHT22;7290;50.854;4.354;2022-12-05T15:52:42;6.30;99.90
14411;DHT22;7290;50.854;4.354;2022-12-05T15:55:13;6.30;99.90
14411;DHT22;7290;50.854;4.354;2022-12-05T15:57:43;6.40;99.90
14411;DHT22;7290;50.854;4.354;2022-12-05T16:00:14;6.30;99.90
14411;DHT22;7290;50.854;4.354;2022-12-05T16:02:44;6.30;99.90
14411;DHT22;7290;50.854;4.354;2022-12-05T16:05:19;6.20;99.90
14411;DHT22;7290;50.854;4.354;2022-12-05T16:07:47;6.30;99.90
14411;DHT22;7290;50.854;4.354;2022-12-05T16:10:15;6.40;99.90
14411;DHT22;7290;50.854;4.354;2022-12-05T16:12:45;6.30;99.90
14411;DHT22;7290;50.854;4.354;2022-12-05T16:15:14;6.30;99.90
14411;DHT22;7290;50.854;4.354;2022-12-05T16:17:43;6.40;99.90
14411;DHT22;7290;50.854;4.354;2022-12-05T16:20:19;6.40;99.90
14411;DHT22;7290;50.854;4.354;2022-12-05T16:22:47;6.50;99.90
14411;DHT22;7290;50.854;4.354;2022-12-05T16:25:17;6.40;99.90
14411;DHT22;7290;50.854;4.354;2022-12-05T16:27:55;6.50;99.90
14411;DHT22;7290;50.854;4.354;2022-12-05T16:30:22;6.60;99.90
14411;DHT22;7290;50.854;4.354;2022-12-05T16:32:57;6.50;99.90
14411;DHT22;7290;50.854;4.354;2022-12-05T16:35:37;6.40;99.90
14411;DHT22;7290;50.854;4.354;2022-12-05T16:38:13;6.30;99.90